This is the latest recevied weather packets stored in our database for station/object CT7BNL-13. If no packets are shown the sender has not sent any weather packets the latest 10 day(s).
| Time | Temp. | Humidity | Pressure | Rain* | Wind** | Luminosity | Snow |
|---|---|---|---|---|---|---|---|
| 1788208465 | 17.78° C | 79% | 1027.5 hPa | 0 mm | - | 0 W/m² | - |
| 1788207565 | 17.78° C | 77% | 1027.3 hPa | 0 mm | - | 0 W/m² | - |
| 1788206665 | 18.33° C | 76% | 1027.1 hPa | 0 mm | - | 0 W/m² | - |
| 1788205785 | 18.33° C | 74% | 1026.7 hPa | 0 mm | - | 0 W/m² | - |
| 1788204868 | 18.89° C | 72% | 1026.7 hPa | 0 mm | - | 0 W/m² | - |
| 1788203973 | 19.44° C | 71% | 1026.2 hPa | 0 mm | - | 0 W/m² | - |
| 1788203065 | 20° C | 70% | 1026.1 hPa | 0 mm | - | 4 W/m² | - |
| 1788202165 | 21.11° C | 67% | 1026.1 hPa | 0 mm | - | 17 W/m² | - |
| 1788201266 | 21.67° C | 63% | 1026.4 hPa | 0 mm | - | 40 W/m² | - |
| 1788200366 | 22.22° C | 63% | 1026.3 hPa | 0 mm | - | 72 W/m² | - |
| 1788199465 | 22.22° C | 62% | 1026.1 hPa | 0 mm | - | 105 W/m² | - |
| 1788198565 | 22.22° C | 63% | 1026 hPa | 0 mm | - | 130 W/m² | - |
| 1788197665 | 22.22° C | 62% | 1026 hPa | 0 mm | - | 106 W/m² | - |
| 1788196765 | 23.89° C | 58% | 1025.8 hPa | 0 mm | - | 89 W/m² | - |
| 1788195867 | 24.44° C | 56% | 1025.7 hPa | 0 mm | - | 260 W/m² | - |
| 1788194965 | 25.56° C | 54% | 1025.8 hPa | 0 mm | - | 321 W/m² | - |
| 1788194066 | 25.56° C | 52% | 1025.8 hPa | 0 mm | - | 318 W/m² | - |
| 1788193166 | 26.11° C | 51% | 1026 hPa | 0 mm | - | 384 W/m² | - |
| 1788192265 | 27.22° C | 46% | 1025.9 hPa | 0 mm | - | 451 W/m² | - |
| 1788191365 | 27.78° C | 46% | 1026 hPa | 0 mm | - | 494 W/m² | - |
| 1788190465 | 27.78° C | 44% | 1026 hPa | 0 mm | - | 542 W/m² | - |
| 1788189565 | 27.78° C | 42% | 1026 hPa | 0 mm | - | 586 W/m² | - |
| 1788188672 | 27.78° C | 41% | 1026.2 hPa | 0 mm | - | 625 W/m² | - |
| 1788187767 | 27.78° C | 40% | 1026.4 hPa | 0 mm | - | 662 W/m² | - |
| 1788186865 | 27.78° C | 39% | 1026.5 hPa | 0 mm | - | 696 W/m² | - |
* Rain latest hour (hover to see other rain measurements)
** Current wind speed in m/s (hover to see current wind gust speed)